Abraham, Utah
Current Conditions -  °F | °C
As of 1:15 PM on Thursday 29 Jan 2015 (Local Time) from KDTA Reporting Station
Clear Clear  
Wind Chill: 46°   Ceiling: Unl
Heat Index: 46°   Visibility: 7mi
Dew Point: 34°   Wind: 0mph
Humidity: 65%   Direction: NA
Pressure: 30.28"   Gusts: NA
Location:  39.4463°N, 112.85°W
Report Text: KDTA 292015Z AUTO 00000KT 7SM CLR 08/01 A3028 RMK AO1 T00750012
Loading
Personal Weather Stations






























Interactive Weather Map New forecast layout! Learn more

10-Day Weather Forecast

Advertisements
Track Severe Weather on mobile